Have a Safe July 4th! 

Flight Track Log - Related Links

Times and Time Zones

All times are in EDT time to prevent confusion due to time zone crossing. See the UAL252 flight status page for this flight to view local times or setup timezone preferences in your user account.

Time Position Orientation Groundspeed Altitude Reporting Facility
EDT Latitude Longitude Course Direction KTS MPH feet Rate Location/Type
Thu 09:16:39 AM 29.9550 -95.3394 23° Northeast 195 224 900  Level Houston Center
Thu 09:17:53 AM 29.9572 -95.3875 273° West 239 275 3,400 1,362 Climbing Houston Center
Thu 09:19:00 AM 30.3666 -95.1833 14° North  Level FlightAware Approximate
Thu 09:19:00 AM 30.0342 -95.3542 21° North 284 327 4,100  Level Houston Center
Thu 09:20:00 AM 30.4592 -95.1345 27° Northeast  Level FlightAware Approximate
Thu 09:20:24 AM 30.1206 -95.3094 24° Northeast 280 322 7,000  Level Houston Center
Thu 09:21:00 AM 30.5508 -95.0829 23° Northeast  Level FlightAware Approximate
Thu 09:21:26 AM 30.2081 -95.2678 22° Northeast 284 327 10,600  Level Houston Center
Thu 09:22:28 AM 30.2936 -95.2256 23° Northeast 326 375 12,300 1,984 Climbing Houston Center
Thu 09:23:30 AM 30.3856 -95.1800 23° Northeast 351 404 14,700 2,226 Climbing Houston Center
Thu 09:24:32 AM 30.4900 -95.1253 24° Northeast 369 425 16,900 1,984 Climbing Houston Center
Thu 09:25:34 AM 30.5875 -95.0772 23° Northeast 378 435 18,800 1,839 Climbing Houston Center
Thu 09:26:36 AM 30.6844 -95.0178 28° Northeast 388 447 20,700 1,645 Climbing Houston Center
Thu 09:27:38 AM 30.7828 -94.9550 29° Northeast 397 457 22,200 1,355 Climbing Houston Center
Thu 09:28:40 AM 30.8836 -94.8919 28° Northeast 410 472 23,500 1,548 Climbing Houston Center
Thu 09:29:42 AM 31.0092 -94.8131 28° Northeast 422 486 25,400 1,500 Climbing Houston Center
Thu 09:30:44 AM 31.1139 -94.7472 28° Northeast 426 490 26,600 1,258 Climbing Houston Center
Thu 09:31:46 AM 31.2242 -94.6758 29° Northeast 438 504 28,000 1,113 Climbing Houston Center
Thu 09:32:48 AM 31.3208 -94.6078 31° Northeast 440 506 28,900 968 Climbing Houston Center
Thu 09:33:50 AM 31.4517 -94.5178 30° Northeast 456 525 30,000 1,065 Climbing Houston Center
Thu 09:34:52 AM 31.5617 -94.4417 31° Northeast 459 528 31,100 1,403 Climbing Houston Center
Thu 09:35:54 AM 31.6711 -94.3650 31° Northeast 459 528 32,900 1,584 Climbing Houston Center
Thu 09:36:57 AM 31.7764 -94.2931 30° Northeast 442 509 34,400 1,392 Climbing Houston Center
Thu 09:37:59 AM 31.8950 -94.2083 31° Northeast 434 499 35,800 968 Climbing Houston Center
Thu 09:39:01 AM 31.9992 -94.1358 31° Northeast 435 501 36,400 581 Climbing Houston Center
Thu 09:40:03 AM 32.1092 -94.0589 31° Northeast 439 505 37,000 290 Climbing Houston Center
Thu 09:41:05 AM 32.2153 -93.9836 31° Northeast 443 510 37,000  Level Houston Center
Thu 09:42:07 AM 32.3200 -93.9086 31° Northeast 441 507 37,000 255 Level Houston Center
Thu 09:43:26 AM 32.4642 -93.8014 32° Northeast 439 505 37,600 604 Climbing Fort Worth Center
Thu 09:44:26 AM 32.5706 -93.7256 31° Northeast 439 505 38,400 700 Climbing Fort Worth Center
Thu 09:45:26 AM 32.6750 -93.6522 31° Northeast 439 505 39,000 250 Climbing Fort Worth Center
Thu 09:46:26 AM 32.7769 -93.5764 32° Northeast 439 505 38,900  Descending Fort Worth Center
Thu 09:47:26 AM 32.8811 -93.5025 31° Northeast 439 505 39,000  Climbing Fort Worth Center
Thu 09:48:26 AM 32.9831 -93.4264 32° Northeast 439 505 38,900 -50 Descending Fort Worth Center
Thu 09:49:26 AM 33.0875 -93.3572 29° Northeast 434 499 38,900 50 Level Fort Worth Center
Thu 09:50:26 AM 33.1872 -93.2808 33° Northeast 434 499 39,000 50 Climbing Fort Worth Center
Thu 09:51:26 AM 33.2911 -93.2064 31° Northeast 429 494 39,000  Level Fort Worth Center
Thu 09:52:26 AM 33.3931 -93.1317 31° Northeast 434 499 39,000  Level Fort Worth Center
Thu 09:53:32 AM 33.4944 -93.0625 30° Northeast 434 499 39,000  Level Memphis Center
Thu 09:54:32 AM 33.5961 -92.9858 32° Northeast 434 499 39,000  Level Memphis Center
Thu 09:55:32 AM 33.7000 -92.9114 31° Northeast 434 499 39,000  Level Memphis Center
Thu 09:56:33 AM 33.8017 -92.8344 32° Northeast 434 499 39,000 -50 Level Memphis Center
Thu 09:57:32 AM 33.9033 -92.7622 31° Northeast 434 499 38,900 -50 Descending Memphis Center
Thu 09:58:32 AM 34.0028 -92.6875 32° Northeast 434 499 38,900  Level Memphis Center
Thu 09:59:32 AM 34.1108 -92.6075 32° Northeast 429 494 38,900 50 Level Memphis Center
Thu 10:00:32 AM 34.2122 -92.5297 32° Northeast 424 488 39,000 50 Climbing Memphis Center
Thu 10:01:32 AM 34.3158 -92.4544 31° Northeast 424 488 39,000  Level Memphis Center
Thu 10:02:32 AM 34.4172 -92.3739 33° Northeast 424 488 39,000  Level Memphis Center
Thu 10:03:32 AM 34.5186 -92.2981 32° Northeast 424 488 39,000  Level Memphis Center
Thu 10:04:32 AM 34.6200 -92.2222 32° Northeast 424 488 39,000  Level Memphis Center
Thu 10:05:32 AM 34.7272 -92.1639 24° Northeast 424 488 39,000 -50 Level Memphis Center
Thu 10:06:32 AM 34.8425 -92.1308 13° North 417 480 38,900 -50 Descending Memphis Center
Thu 10:07:32 AM 34.9494 -92.1003 13° North 404 465 38,900 50 Level Memphis Center
Thu 10:08:32 AM 35.0603 -92.0719 12° North 398 458 39,000 50 Climbing Memphis Center
Thu 10:09:32 AM 35.1733 -92.0386 14° North 398 458 39,000  Level Memphis Center
Thu 10:10:32 AM 35.2844 -92.0053 14° North 398 458 39,000  Level Memphis Center
Thu 10:11:32 AM 35.3953 -91.9744 13° North 398 458 39,000  Level Memphis Center
Thu 10:12:32 AM 35.5042 -91.9408 14° North 398 458 39,000  Level Memphis Center
Thu 10:13:32 AM 35.6047 -91.9122 13° North 403 464 39,000  Level Memphis Center
Thu 10:14:32 AM 35.7156 -91.8783 14° North 403 464 39,000 -50 Level Memphis Center
Thu 10:15:32 AM 35.8267 -91.8472 13° North 403 464 38,900  Descending Memphis Center
Thu 10:16:32 AM 35.9353 -91.8158 13° North 403 464 39,000 50 Climbing Memphis Center
Thu 10:17:32 AM 36.0442 -91.7869 12° North 396 456 39,000  Level Memphis Center
Thu 10:18:32 AM 36.1508 -91.7528 15° North 396 456 39,000  Level Memphis Center
Thu 10:19:32 AM 36.2617 -91.7211 13° North 396 456 39,000  Level Memphis Center
Thu 10:20:32 AM 36.3706 -91.6894 13° North 396 456 39,000 -50 Level Memphis Center
Thu 10:21:32 AM 36.4792 -91.6578 13° North 396 456 38,900 -50 Descending Memphis Center
Thu 10:22:32 AM 36.5942 -91.6208 14° North 401 461 38,900  Level Memphis Center
Thu 10:23:59 AM 36.7483 -91.5700 15° North 403 464 38,900 40 Level Kansas City Center
Thu 10:25:01 AM 36.8581 -91.5381 13° North 405 466 39,000 48 Climbing Kansas City Center
Thu 10:26:03 AM 36.9856 -91.5050 12° North 393 452 39,000  Level Kansas City Center
Thu 10:27:05 AM 37.0958 -91.4706 14° North 401 461 39,000 -48 Level Kansas City Center
Thu 10:28:07 AM 37.2094 -91.4325 15° North 414 476 38,900  Descending Kansas City Center
Thu 10:29:09 AM 37.3183 -91.4000 13° North 406 467 39,000 48 Climbing Kansas City Center
Thu 10:30:11 AM 37.4292 -91.3664 14° North 408 470 39,000  Level Kansas City Center
Thu 10:31:13 AM 37.5408 -91.3306 14° North 412 474 39,000  Level Kansas City Center
Thu 10:32:15 AM 37.6747 -91.2908 13° North 412 474 39,000  Level Kansas City Center
Thu 10:33:17 AM 37.7864 -91.2569 13° North 413 475 39,000  Level Kansas City Center
Thu 10:34:19 AM 37.8967 -91.2211 14° North 411 473 39,000 -97 Level Kansas City Center
Thu 10:35:21 AM 38.0053 -91.1886 13° North 405 466 38,800 -532 Descending Kansas City Center
Thu 10:36:23 AM 38.1150 -91.1533 14° North 406 467 37,900 -871 Descending Kansas City Center
Thu 10:37:25 AM 38.2342 -91.1167 14° North 410 472 37,000 -435 Descending Kansas City Center
Thu 10:38:27 AM 38.3450 -91.0925 10° North 407 468 37,000  Level Kansas City Center
Thu 10:39:29 AM 38.4569 -91.0975 358° North 402 463 37,000  Level Kansas City Center
Thu 10:40:31 AM 38.5681 -91.0564 16° North 420 483 37,000  Level Kansas City Center
Thu 10:41:33 AM 38.6778 -91.0011 21° North 423 487 37,000 -97 Level Kansas City Center
Thu 10:42:35 AM 38.8075 -90.9317 23° Northeast 419 482 36,800 -581 Descending Kansas City Center
Thu 10:43:37 AM 38.9153 -90.8717 23° Northeast 419 482 35,800 -968 Descending Kansas City Center
Thu 10:44:39 AM 39.0242 -90.8111 23° Northeast 422 486 34,800 -1,403 Descending Kansas City Center
Thu 10:45:41 AM 39.1319 -90.7522 23° Northeast 420 483 32,900 -1,790 Descending Kansas City Center
Thu 10:46:43 AM 39.2344 -90.6939 24° Northeast 407 468 31,100 -968 Descending Kansas City Center
Thu 10:47:45 AM 39.3375 -90.6378 23° Northeast 401 461 30,900 -968 Descending Kansas City Center
Thu 10:48:47 AM 39.4403 -90.5789 24° Northeast 403 464 29,100 -919 Descending Kansas City Center
Thu 10:49:49 AM 39.5694 -90.5067 23° Northeast 417 480 29,000 -48 Descending Kansas City Center
Thu 10:50:51 AM 39.6744 -90.4469 24° Northeast 415 478 29,000 -48 Level Kansas City Center
Thu 10:51:53 AM 39.7678 -90.3936 24° Northeast 406 467 28,900 -48 Descending Kansas City Center
Thu 10:52:55 AM 39.8711 -90.3369 23° Northeast 404 465 28,900 48 Level Kansas City Center
Thu 10:53:57 AM 39.9942 -90.2656 24° Northeast 403 464 29,000 48 Climbing Kansas City Center
Thu 10:54:59 AM 40.0972 -90.2072 23° Northeast 403 464 29,000  Level Kansas City Center
Thu 10:56:01 AM 40.1989 -90.1486 24° Northeast 401 461 29,000  Level Kansas City Center
Thu 10:58:06 AM 40.4017 -90.0319 24° Northeast 397 457 29,000 -32 Level Kansas City Center
Thu 10:59:08 AM 40.5019 -89.9739 24° Northeast 395 455 28,900 -484 Descending Kansas City Center
Thu 11:00:10 AM 40.6144 -89.9086 24° Northeast 392 451 28,000 -919 Descending Kansas City Center
Thu 11:01:12 AM 40.7131 -89.8522 23° Northeast 398 458 27,000 -968 Descending Kansas City Center
Thu 11:02:14 AM 40.8192 -89.7883 24° Northeast 407 468 26,000 -1,071 Descending Kansas City Center
Thu 11:03:32 AM 40.9656 -89.7003 24° Northeast 399 459 24,500 -857 Descending Chicago Center
Thu 11:04:34 AM 41.0344 -89.5842 52° Northeast 423 487 24,000 -484 Descending Chicago Center
Thu 11:05:36 AM 41.1025 -89.4617 54° Northeast 415 478 23,500 -1,016 Descending Chicago Center
Thu 11:06:38 AM 41.1694 -89.3400 54° Northeast 411 473 21,900 -1,984 Descending Chicago Center
Thu 11:07:40 AM 41.2483 -89.1964 54° Northeast 402 463 19,400 -2,274 Descending Chicago Center
Thu 11:08:42 AM 41.3086 -89.0839 54° Northeast 377 434 17,200 -2,274 Descending Chicago Center
Thu 11:09:44 AM 41.3653 -88.9778 55° Northeast 358 412 14,700 -2,419 Descending Chicago Center
Thu 11:10:46 AM 41.4214 -88.8758 54° Northeast 347 399 12,200 -1,790 Descending Chicago Center
Thu 11:11:48 AM 41.4756 -88.7756 54° Northeast 338 389 11,000 -576 Descending Chicago Center
Thu 11:12:51 AM 41.5283 -88.6692 56° Northeast 344 396 11,000  Level Chicago Center
Thu 11:13:53 AM 41.5831 -88.5289 62° Northeast 356 410 11,000  Level Chicago Center
Thu 11:14:55 AM 41.6375 -88.4167 57° Northeast 356 410 11,000  Level Chicago Center
Thu 11:15:57 AM 41.6994 -88.3128 51° Northeast 357 411 11,000 -290 Level Chicago Center
Thu 11:16:59 AM 41.7592 -88.2100 52° Northeast 353 406 10,400 -774 Descending Chicago Center
Thu 11:18:01 AM 41.8094 -88.1225 52° Northeast 310 357 9,400 -1,210 Descending Chicago Center
Thu 11:19:03 AM 41.8578 -88.0361 53° Northeast 294 338 7,900 -1,161 Descending Chicago Center
Thu 11:20:05 AM 41.8842 -87.9200 73° East 289 333 7,000 -435 Descending Chicago Center
Thu 11:21:07 AM 41.8839 -87.8144 90° East 285 328 7,000 -726 Level Chicago Center
Thu 11:22:09 AM 41.8842 -87.7089 90° East 284 327 5,500 -968 Descending Chicago Center
Thu 11:23:11 AM 41.9144 -87.6289 63° Northeast 281 323 5,000 -240 Descending Chicago Center
Thu 11:24:14 AM 41.9586 -87.6731 323° Northwest 235 270 5,000  Level Chicago Center

Login

Don't have an account? Register now (free) for customized features, flight alerts, and more!